Terminal Aerodrome Forecast
Issued by NWS

Home | Current Version | Previous Version | Text Only | Print | Product List | Glossary On
Versions: 1 2 3 4 5 6 7 8 9 10 11 12 13 14 15 16 17 18 19 20 21 22 23 24 25 26 27 28 29 30 31 32 33 34 35 36 37 38 39 40 41 42 43 44 45 46 47 48 49 50
732
FTUS41 KCTP 250601 RRA
TAFUNV
TAF
KUNV 250601Z 2506/2606 26005KT P6SM SKC
     FM250700 21005KT P6SM SCT150 WS020/24035KT
     FM251400 22010KT P6SM BKN060 OVC100
     FM260000 29009KT P6SM SCT200
     FM260500 29010G17KT P6SM BKN060=

USA.gov is the U.S. government's official web portal to all federal, state and local government web resources and services.